sensor_id;sensor_type;location;lat;lon;timestamp;pressure;altitude;pressure_sealevel;temperature;humidity
10014;BME280;45684;48.358;10.746;2023-02-16T00:01:45;97268.94;;;-1.78;100.00
10014;BME280;45684;48.358;10.746;2023-02-16T00:04:18;97262.41;;;-1.82;100.00
10014;BME280;45684;48.358;10.746;2023-02-16T00:06:46;97274.53;;;-1.99;100.00
10014;BME280;45684;48.358;10.746;2023-02-16T00:09:15;97268.19;;;-1.98;100.00
10014;BME280;45684;48.358;10.746;2023-02-16T00:11:44;97274.72;;;-1.94;100.00
10014;BME280;45684;48.358;10.746;2023-02-16T00:14:29;97271.84;;;-1.93;100.00
10014;BME280;45684;48.358;10.746;2023-02-16T00:17:00;97269.59;;;-1.89;100.00
10014;BME280;45684;48.358;10.746;2023-02-16T00:19:33;97257.56;;;-1.85;100.00
10014;BME280;45684;48.358;10.746;2023-02-16T00:22:03;97261.22;;;-1.93;100.00
10014;BME280;45684;48.358;10.746;2023-02-16T00:24:31;97258.38;;;-1.91;100.00
10014;BME280;45684;48.358;10.746;2023-02-16T00:27:00;97252.88;;;-1.90;100.00
10014;BME280;45684;48.358;10.746;2023-02-16T00:29:30;97250.41;;;-1.91;100.00
10014;BME280;45684;48.358;10.746;2023-02-16T00:31:59;97254.53;;;-1.95;100.00
10014;BME280;45684;48.358;10.746;2023-02-16T00:34:31;97244.72;;;-1.88;100.00
10014;BME280;45684;48.358;10.746;2023-02-16T00:37:01;97244.88;;;-1.83;100.00
10014;BME280;45684;48.358;10.746;2023-02-16T00:39:30;97239.19;;;-1.80;100.00
10014;BME280;45684;48.358;10.746;2023-02-16T00:42:00;97254.03;;;-1.79;100.00
10014;BME280;45684;48.358;10.746;2023-02-16T00:44:31;97246.09;;;-1.79;100.00
10014;BME280;45684;48.358;10.746;2023-02-16T00:47:02;97252.59;;;-1.75;100.00
10014;BME280;45684;48.358;10.746;2023-02-16T00:49:31;97251.75;;;-1.69;100.00
10014;BME280;45684;48.358;10.746;2023-02-16T00:51:59;97257.84;;;-1.62;100.00
10014;BME280;45684;48.358;10.746;2023-02-16T00:54:27;97251.50;;;-1.61;100.00
10014;BME280;45684;48.358;10.746;2023-02-16T00:56:57;97246.59;;;-1.57;100.00
10014;BME280;45684;48.358;10.746;2023-02-16T00:59:25;97251.28;;;-1.52;100.00
10014;BME280;45684;48.358;10.746;2023-02-16T01:01:53;97240.22;;;-1.49;100.00
10014;BME280;45684;48.358;10.746;2023-02-16T01:04:22;97243.91;;;-1.50;100.00
10014;BME280;45684;48.358;10.746;2023-02-16T01:06:52;97233.91;;;-1.48;100.00
10014;BME280;45684;48.358;10.746;2023-02-16T01:09:37;97239.00;;;-1.47;100.00
10014;BME280;45684;48.358;10.746;2023-02-16T01:12:22;97230.22;;;-1.47;100.00
10014;BME280;45684;48.358;10.746;2023-02-16T01:14:51;97236.56;;;-1.48;100.00
10014;BME280;45684;48.358;10.746;2023-02-16T01:17:22;97238.59;;;-1.50;100.00
10014;BME280;45684;48.358;10.746;2023-02-16T01:19:52;97235.94;;;-1.50;100.00
10014;BME280;45684;48.358;10.746;2023-02-16T01:22:21;97239.22;;;-1.48;100.00
10014;BME280;45684;48.358;10.746;2023-02-16T01:24:49;97220.84;;;-1.50;100.00
10014;BME280;45684;48.358;10.746;2023-02-16T01:27:17;97223.72;;;-1.51;100.00
10014;BME280;45684;48.358;10.746;2023-02-16T01:29:44;97221.66;;;-1.49;100.00
10014;BME280;45684;48.358;10.746;2023-02-16T01:32:14;97223.31;;;-1.48;100.00
10014;BME280;45684;48.358;10.746;2023-02-16T01:34:42;97227.41;;;-1.52;100.00
10014;BME280;45684;48.358;10.746;2023-02-16T01:37:13;97223.56;;;-1.57;100.00
10014;BME280;45684;48.358;10.746;2023-02-16T01:39:44;97225.97;;;-1.55;100.00
10014;BME280;45684;48.358;10.746;2023-02-16T01:42:28;97217.03;;;-1.61;100.00
10014;BME280;45684;48.358;10.746;2023-02-16T01:45:04;97214.63;;;-1.62;100.00
10014;BME280;45684;48.358;10.746;2023-02-16T01:47:37;97213.00;;;-1.70;100.00
10014;BME280;45684;48.358;10.746;2023-02-16T01:50:14;97218.94;;;-1.74;100.00
10014;BME280;45684;48.358;10.746;2023-02-16T01:52:48;97217.56;;;-1.77;100.00
10014;BME280;45684;48.358;10.746;2023-02-16T01:55:24;97214.53;;;-1.87;100.00
10014;BME280;45684;48.358;10.746;2023-02-16T01:57:55;97216.81;;;-1.91;100.00
10014;BME280;45684;48.358;10.746;2023-02-16T02:01:25;97221.09;;;-1.96;100.00
10014;BME280;45684;48.358;10.746;2023-02-16T02:03:17;97219.69;;;-1.99;100.00
10014;BME280;45684;48.358;10.746;2023-02-16T02:06:06;97217.84;;;-1.98;100.00
10014;BME280;45684;48.358;10.746;2023-02-16T02:08:39;97210.75;;;-2.04;100.00
10014;BME280;45684;48.358;10.746;2023-02-16T02:11:15;97209.94;;;-2.05;100.00
10014;BME280;45684;48.358;10.746;2023-02-16T02:13:57;97213.00;;;-2.15;100.00
10014;BME280;45684;48.358;10.746;2023-02-16T02:16:27;97213.25;;;-2.23;100.00
10014;BME280;45684;48.358;10.746;2023-02-16T02:18:55;97208.31;;;-2.19;100.00
10014;BME280;45684;48.358;10.746;2023-02-16T02:21:49;97205.09;;;-2.21;100.00
10014;BME280;45684;48.358;10.746;2023-02-16T02:25:06;97207.34;;;-2.25;100.00
10014;BME280;45684;48.358;10.746;2023-02-16T02:27:46;97209.63;;;-2.28;100.00
10014;BME280;45684;48.358;10.746;2023-02-16T02:30:30;97206.56;;;-2.32;100.00
10014;BME280;45684;48.358;10.746;2023-02-16T02:33:16;97201.69;;;-2.42;100.00
10014;BME280;45684;48.358;10.746;2023-02-16T02:35:50;97207.63;;;-2.60;100.00
10014;BME280;45684;48.358;10.746;2023-02-16T02:38:26;97204.19;;;-2.60;100.00
10014;BME280;45684;48.358;10.746;2023-02-16T02:41:03;97200.09;;;-2.56;100.00
10014;BME280;45684;48.358;10.746;2023-02-16T02:43:39;97203.19;;;-2.66;100.00
10014;BME280;45684;48.358;10.746;2023-02-16T02:46:12;97199.28;;;-2.63;100.00
10014;BME280;45684;48.358;10.746;2023-02-16T02:48:44;97203.38;;;-2.61;100.00
10014;BME280;45684;48.358;10.746;2023-02-16T02:51:13;97205.41;;;-2.56;100.00
10014;BME280;45684;48.358;10.746;2023-02-16T02:54:01;97206.81;;;-2.53;100.00
10014;BME280;45684;48.358;10.746;2023-02-16T02:56:52;97200.66;;;-2.47;100.00
10014;BME280;45684;48.358;10.746;2023-02-16T02:59:57;97211.88;;;-2.52;100.00
10014;BME280;45684;48.358;10.746;2023-02-16T03:02:45;97210.28;;;-2.60;100.00
10014;BME280;45684;48.358;10.746;2023-02-16T03:05:17;97204.19;;;-2.67;100.00
10014;BME280;45684;48.358;10.746;2023-02-16T03:07:46;97200.94;;;-2.69;100.00
10014;BME280;45684;48.358;10.746;2023-02-16T03:10:18;97204.00;;;-2.85;100.00
10014;BME280;45684;48.358;10.746;2023-02-16T03:13:07;97203.19;;;-2.99;100.00
10014;BME280;45684;48.358;10.746;2023-02-16T03:15:39;97202.19;;;-2.91;100.00
10014;BME280;45684;48.358;10.746;2023-02-16T03:18:09;97202.78;;;-2.89;100.00
10014;BME280;45684;48.358;10.746;2023-02-16T03:20:55;97196.88;;;-2.85;100.00
10014;BME280;45684;48.358;10.746;2023-02-16T03:23:42;97184.47;;;-2.77;100.00
10014;BME280;45684;48.358;10.746;2023-02-16T03:26:29;97188.13;;;-2.78;100.00
10014;BME280;45684;48.358;10.746;2023-02-16T03:29:16;97192.00;;;-2.74;100.00
10014;BME280;45684;48.358;10.746;2023-02-16T03:31:50;97198.09;;;-2.80;100.00
10014;BME280;45684;48.358;10.746;2023-02-16T03:34:20;97195.44;;;-2.80;100.00
10014;BME280;45684;48.358;10.746;2023-02-16T03:36:50;97192.78;;;-2.80;100.00
10014;BME280;45684;48.358;10.746;2023-02-16T03:39:19;97192.59;;;-2.79;100.00
10014;BME280;45684;48.358;10.746;2023-02-16T03:41:49;97188.53;;;-2.75;100.00
10014;BME280;45684;48.358;10.746;2023-02-16T03:44:18;97192.19;;;-2.76;100.00
10014;BME280;45684;48.358;10.746;2023-02-16T03:46:46;97190.16;;;-2.74;100.00
10014;BME280;45684;48.358;10.746;2023-02-16T03:49:16;97195.44;;;-2.74;100.00
10014;BME280;45684;48.358;10.746;2023-02-16T03:51:44;97199.50;;;-2.71;100.00
10014;BME280;45684;48.358;10.746;2023-02-16T03:54:12;97196.84;;;-2.71;100.00
10014;BME280;45684;48.358;10.746;2023-02-16T03:56:40;97190.75;;;-2.72;100.00
10014;BME280;45684;48.358;10.746;2023-02-16T03:59:08;97205.22;;;-2.68;100.00
10014;BME280;45684;48.358;10.746;2023-02-16T04:01:35;97202.56;;;-2.68;100.00
10014;BME280;45684;48.358;10.746;2023-02-16T04:04:03;97208.88;;;-2.69;100.00
10014;BME280;45684;48.358;10.746;2023-02-16T04:06:33;97213.16;;;-2.81;100.00
10014;BME280;45684;48.358;10.746;2023-02-16T04:09:01;97203.81;;;-2.90;100.00
10014;BME280;45684;48.358;10.746;2023-02-16T04:11:28;97213.38;;;-2.89;100.00
10014;BME280;45684;48.358;10.746;2023-02-16T04:14:14;97209.31;;;-2.92;100.00
10014;BME280;45684;48.358;10.746;2023-02-16T04:16:41;97215.19;;;-2.90;100.00
10014;BME280;45684;48.358;10.746;2023-02-16T04:19:10;97213.78;;;-2.86;100.00
10014;BME280;45684;48.358;10.746;2023-02-16T04:21:39;97226.59;;;-2.83;100.00
10014;BME280;45684;48.358;10.746;2023-02-16T04:24:08;97226.81;;;-2.84;100.00
10014;BME280;45684;48.358;10.746;2023-02-16T04:26:36;97224.97;;;-2.84;100.00
10014;BME280;45684;48.358;10.746;2023-02-16T04:29:04;97229.47;;;-2.84;100.00
10014;BME280;45684;48.358;10.746;2023-02-16T04:31:31;97214.00;;;-2.87;100.00
10014;BME280;45684;48.358;10.746;2023-02-16T04:34:00;97226.81;;;-2.84;100.00
10014;BME280;45684;48.358;10.746;2023-02-16T04:36:28;97218.03;;;-2.85;100.00
10014;BME280;45684;48.358;10.746;2023-02-16T04:38:58;97221.91;;;-2.80;100.00
10014;BME280;45684;48.358;10.746;2023-02-16T04:41:26;97217.63;;;-2.82;100.00
10014;BME280;45684;48.358;10.746;2023-02-16T04:43:54;97211.53;;;-2.82;100.00
10014;BME280;45684;48.358;10.746;2023-02-16T04:46:22;97209.28;;;-2.85;100.00
10014;BME280;45684;48.358;10.746;2023-02-16T04:48:50;97223.53;;;-2.86;100.00
10014;BME280;45684;48.358;10.746;2023-02-16T04:51:18;97218.06;;;-2.91;100.00
10014;BME280;45684;48.358;10.746;2023-02-16T04:53:46;97212.16;;;-2.93;100.00
10014;BME280;45684;48.358;10.746;2023-02-16T04:56:15;97210.34;;;-2.93;100.00
10014;BME280;45684;48.358;10.746;2023-02-16T04:58:43;97208.72;;;-2.94;100.00
10014;BME280;45684;48.358;10.746;2023-02-16T05:01:17;97210.13;;;-2.91;100.00
10014;BME280;45684;48.358;10.746;2023-02-16T05:03:46;97221.09;;;-2.94;100.00
10014;BME280;45684;48.358;10.746;2023-02-16T05:06:14;97217.25;;;-2.98;100.00
10014;BME280;45684;48.358;10.746;2023-02-16T05:08:42;97212.97;;;-2.99;100.00
10014;BME280;45684;48.358;10.746;2023-02-16T05:11:10;97221.09;;;-2.94;100.00
10014;BME280;45684;48.358;10.746;2023-02-16T05:13:57;97218.44;;;-2.94;100.00
10014;BME280;45684;48.358;10.746;2023-02-16T05:16:43;97219.91;;;-2.92;100.00
10014;BME280;45684;48.358;10.746;2023-02-16T05:19:11;97225.19;;;-2.98;100.00
10014;BME280;45684;48.358;10.746;2023-02-16T05:21:39;97232.69;;;-3.09;100.00
10014;BME280;45684;48.358;10.746;2023-02-16T05:24:09;97235.75;;;-3.05;100.00
10014;BME280;45684;48.358;10.746;2023-02-16T05:26:38;97231.69;;;-3.01;100.00
10014;BME280;45684;48.358;10.746;2023-02-16T05:29:07;97237.59;;;-2.99;100.00
10014;BME280;45684;48.358;10.746;2023-02-16T05:31:35;97239.63;;;-2.94;100.00
10014;BME280;45684;48.358;10.746;2023-02-16T05:34:03;97233.13;;;-2.92;100.00
10014;BME280;45684;48.358;10.746;2023-02-16T05:36:31;97238.81;;;-2.88;100.00
10014;BME280;45684;48.358;10.746;2023-02-16T05:38:58;97244.94;;;-2.88;100.00
10014;BME280;45684;48.358;10.746;2023-02-16T05:41:26;97248.59;;;-2.89;100.00
10014;BME280;45684;48.358;10.746;2023-02-16T05:43:57;97242.91;;;-2.92;100.00
10014;BME280;45684;48.358;10.746;2023-02-16T05:46:28;97247.38;;;-2.93;100.00
10014;BME280;45684;48.358;10.746;2023-02-16T05:48:58;97247.97;;;-2.91;100.00
10014;BME280;45684;48.358;10.746;2023-02-16T05:51:26;97251.25;;;-2.89;100.00
10014;BME280;45684;48.358;10.746;2023-02-16T05:53:54;97248.59;;;-2.89;100.00
10014;BME280;45684;48.358;10.746;2023-02-16T05:56:22;97250.22;;;-2.88;100.00
10014;BME280;45684;48.358;10.746;2023-02-16T05:58:51;97255.69;;;-2.89;100.00
10014;BME280;45684;48.358;10.746;2023-02-16T06:01:19;97258.56;;;-2.91;100.00
10014;BME280;45684;48.358;10.746;2023-02-16T06:03:49;97257.53;;;-2.90;100.00
10014;BME280;45684;48.358;10.746;2023-02-16T06:06:17;97254.72;;;-2.88;100.00
10014;BME280;45684;48.358;10.746;2023-02-16T06:08:45;97260.19;;;-2.83;100.00
10014;BME280;45684;48.358;10.746;2023-02-16T06:11:13;97255.31;;;-2.79;100.00
10014;BME280;45684;48.358;10.746;2023-02-16T06:13:55;97257.97;;;-2.79;100.00
10014;BME280;45684;48.358;10.746;2023-02-16T06:16:24;97262.63;;;-2.82;100.00
10014;BME280;45684;48.358;10.746;2023-02-16T06:18:54;97272.41;;;-2.82;100.00
10014;BME280;45684;48.358;10.746;2023-02-16T06:21:23;97277.28;;;-2.92;100.00
10014;BME280;45684;48.358;10.746;2023-02-16T06:23:52;97278.91;;;-2.91;100.00
10014;BME280;45684;48.358;10.746;2023-02-16T06:26:20;97287.44;;;-2.89;100.00
10014;BME280;45684;48.358;10.746;2023-02-16T06:28:48;97275.88;;;-2.88;100.00
10014;BME280;45684;48.358;10.746;2023-02-16T06:31:16;97268.94;;;-2.89;100.00
10014;BME280;45684;48.358;10.746;2023-02-16T06:33:44;97284.81;;;-2.89;100.00
10014;BME280;45684;48.358;10.746;2023-02-16T06:36:14;97276.88;;;-2.89;100.00
10014;BME280;45684;48.358;10.746;2023-02-16T06:38:42;97284.41;;;-2.86;100.00
10014;BME280;45684;48.358;10.746;2023-02-16T06:41:11;97276.69;;;-2.88;100.00
10014;BME280;45684;48.358;10.746;2023-02-16T06:43:39;97279.72;;;-2.91;100.00
10014;BME280;45684;48.358;10.746;2023-02-16T06:46:07;97280.34;;;-2.89;100.00
10014;BME280;45684;48.358;10.746;2023-02-16T06:48:34;97281.94;;;-2.94;100.00
10014;BME280;45684;48.358;10.746;2023-02-16T06:51:03;97290.13;;;-3.02;100.00
10014;BME280;45684;48.358;10.746;2023-02-16T06:53:33;97290.31;;;-2.97;100.00
10014;BME280;45684;48.358;10.746;2023-02-16T06:56:01;97288.47;;;-2.90;100.00
10014;BME280;45684;48.358;10.746;2023-02-16T06:58:29;97280.75;;;-2.85;100.00
10014;BME280;45684;48.358;10.746;2023-02-16T07:00:57;97278.31;;;-2.87;100.00
10014;BME280;45684;48.358;10.746;2023-02-16T07:03:25;97296.81;;;-2.80;100.00
10014;BME280;45684;48.358;10.746;2023-02-16T07:05:53;97297.44;;;-2.78;100.00
10014;BME280;45684;48.358;10.746;2023-02-16T07:08:20;97298.25;;;-2.77;100.00
10014;BME280;45684;48.358;10.746;2023-02-16T07:10:51;97297.88;;;-2.74;100.00
10014;BME280;45684;48.358;10.746;2023-02-16T07:13:20;97293.78;;;-2.70;100.00
10014;BME280;45684;48.358;10.746;2023-02-16T07:15:48;97304.38;;;-2.64;100.00
10014;BME280;45684;48.358;10.746;2023-02-16T07:18:15;97296.41;;;-2.57;100.00
10014;BME280;45684;48.358;10.746;2023-02-16T07:20:43;97300.91;;;-2.51;100.00
10014;BME280;45684;48.358;10.746;2023-02-16T07:23:11;97305.16;;;-2.43;100.00
10014;BME280;45684;48.358;10.746;2023-02-16T07:25:39;97315.75;;;-2.37;100.00
10014;BME280;45684;48.358;10.746;2023-02-16T07:28:08;97309.63;;;-2.31;100.00
10014;BME280;45684;48.358;10.746;2023-02-16T07:30:36;97308.19;;;-2.20;100.00
10014;BME280;45684;48.358;10.746;2023-02-16T07:33:04;97302.66;;;-2.12;100.00
10014;BME280;45684;48.358;10.746;2023-02-16T07:35:32;97294.50;;;-2.03;100.00
10014;BME280;45684;48.358;10.746;2023-02-16T07:38:01;97300.19;;;-1.93;100.00
10014;BME280;45684;48.358;10.746;2023-02-16T07:40:29;97299.34;;;-1.87;100.00
10014;BME280;45684;48.358;10.746;2023-02-16T07:42:58;97298.91;;;-1.77;100.00
10014;BME280;45684;48.358;10.746;2023-02-16T07:45:28;97296.81;;;-1.69;100.00
10014;BME280;45684;48.358;10.746;2023-02-16T07:47:58;97301.09;;;-1.61;100.00
10014;BME280;45684;48.358;10.746;2023-02-16T07:50:26;97303.50;;;-1.53;100.00
10014;BME280;45684;48.358;10.746;2023-02-16T07:52:54;97298.16;;;-1.46;100.00
10014;BME280;45684;48.358;10.746;2023-02-16T07:55:22;97313.22;;;-1.40;100.00
10014;BME280;45684;48.358;10.746;2023-02-16T07:57:50;97310.56;;;-1.34;100.00
10014;BME280;45684;48.358;10.746;2023-02-16T08:00:21;97300.94;;;-1.28;100.00
10014;BME280;45684;48.358;10.746;2023-02-16T08:02:51;97303.34;;;-1.20;100.00
10014;BME280;45684;48.358;10.746;2023-02-16T08:05:20;97316.38;;;-1.12;100.00
10014;BME280;45684;48.358;10.746;2023-02-16T08:07:47;97309.56;;;-1.08;100.00
10014;BME280;45684;48.358;10.746;2023-02-16T08:10:16;97314.81;;;-0.94;100.00
10014;BME280;45684;48.358;10.746;2023-02-16T08:12:44;97322.91;;;-0.83;100.00
10014;BME280;45684;48.358;10.746;2023-02-16T08:15:11;97316.09;;;-0.72;100.00
10014;BME280;45684;48.358;10.746;2023-02-16T08:17:39;97318.25;;;-0.62;100.00
10014;BME280;45684;48.358;10.746;2023-02-16T08:20:09;97322.03;;;-0.52;100.00
10014;BME280;45684;48.358;10.746;2023-02-16T08:22:37;97312.78;;;-0.42;100.00
10014;BME280;45684;48.358;10.746;2023-02-16T08:25:05;97320.84;;;-0.31;100.00
10014;BME280;45684;48.358;10.746;2023-02-16T08:27:33;97319.13;;;-0.18;100.00
10014;BME280;45684;48.358;10.746;2023-02-16T08:30:02;97318.16;;;-0.06;100.00
10014;BME280;45684;48.358;10.746;2023-02-16T08:32:30;97315.59;;;0.06;100.00
10014;BME280;45684;48.358;10.746;2023-02-16T08:34:58;97324.81;;;0.22;100.00
10014;BME280;45684;48.358;10.746;2023-02-16T08:37:27;97308.16;;;0.33;100.00
10014;BME280;45684;48.358;10.746;2023-02-16T08:39:55;97322.13;;;0.47;100.00
10014;BME280;45684;48.358;10.746;2023-02-16T08:42:26;97313.38;;;0.58;100.00
10014;BME280;45684;48.358;10.746;2023-02-16T08:44:53;97308.56;;;0.67;100.00
10014;BME280;45684;48.358;10.746;2023-02-16T08:47:21;97323.19;;;0.76;100.00
10014;BME280;45684;48.358;10.746;2023-02-16T08:49:49;97310.94;;;0.87;100.00
10014;BME280;45684;48.358;10.746;2023-02-16T08:52:17;97313.88;;;0.97;100.00
10014;BME280;45684;48.358;10.746;2023-02-16T08:54:46;97309.63;;;1.08;100.00
10014;BME280;45684;48.358;10.746;2023-02-16T08:57:14;97305.13;;;1.20;100.00
10014;BME280;45684;48.358;10.746;2023-02-16T08:59:44;97312.13;;;1.33;100.00
10014;BME280;45684;48.358;10.746;2023-02-16T09:02:31;97304.03;;;1.51;100.00
10014;BME280;45684;48.358;10.746;2023-02-16T09:04:59;97307.88;;;1.67;100.00
10014;BME280;45684;48.358;10.746;2023-02-16T09:07:27;97302.22;;;1.87;100.00
10014;BME280;45684;48.358;10.746;2023-02-16T09:09:56;97302.66;;;2.07;100.00
10014;BME280;45684;48.358;10.746;2023-02-16T09:12:24;97303.44;;;2.31;100.00
10014;BME280;45684;48.358;10.746;2023-02-16T09:14:52;97299.56;;;2.50;100.00
10014;BME280;45684;48.358;10.746;2023-02-16T09:17:20;97299.16;;;2.70;100.00
10014;BME280;45684;48.358;10.746;2023-02-16T09:19:48;97300.50;;;2.85;100.00
10014;BME280;45684;48.358;10.746;2023-02-16T09:22:16;97300.06;;;3.04;100.00
10014;BME280;45684;48.358;10.746;2023-02-16T09:24:44;97308.69;;;3.23;100.00
10014;BME280;45684;48.358;10.746;2023-02-16T09:27:13;97300.13;;;3.38;100.00
10014;BME280;45684;48.358;10.746;2023-02-16T09:29:41;97308.72;;;3.57;100.00
10014;BME280;45684;48.358;10.746;2023-02-16T09:32:09;97310.81;;;3.72;100.00
10014;BME280;45684;48.358;10.746;2023-02-16T09:34:37;97314.31;;;3.89;100.00
10014;BME280;45684;48.358;10.746;2023-02-16T09:37:05;97308.69;;;4.07;100.00
10014;BME280;45684;48.358;10.746;2023-02-16T09:39:33;97309.47;;;4.25;100.00
10014;BME280;45684;48.358;10.746;2023-02-16T09:42:15;97322.78;;;4.42;100.00
10014;BME280;45684;48.358;10.746;2023-02-16T09:44:50;97324.78;;;4.51;100.00
10014;BME280;45684;48.358;10.746;2023-02-16T09:47:23;97319.94;;;4.70;100.00
10014;BME280;45684;48.358;10.746;2023-02-16T09:49:55;97323.84;;;4.84;100.00
10014;BME280;45684;48.358;10.746;2023-02-16T09:52:31;97326.72;;;5.00;100.00
10014;BME280;45684;48.358;10.746;2023-02-16T09:55:05;97312.72;;;5.20;100.00
10014;BME280;45684;48.358;10.746;2023-02-16T09:57:55;97314.78;;;5.40;100.00
10014;BME280;45684;48.358;10.746;2023-02-16T10:00:37;97316.88;;;5.65;100.00
10014;BME280;45684;48.358;10.746;2023-02-16T10:03:19;97309.81;;;5.91;100.00
10014;BME280;45684;48.358;10.746;2023-02-16T10:05:55;97318.91;;;6.17;100.00
10014;BME280;45684;48.358;10.746;2023-02-16T10:08:30;97316.59;;;6.35;100.00
10014;BME280;45684;48.358;10.746;2023-02-16T10:11:02;97318.25;;;6.47;100.00
10014;BME280;45684;48.358;10.746;2023-02-16T10:13:38;97320.19;;;6.61;100.00
10014;BME280;45684;48.358;10.746;2023-02-16T10:16:13;97320.78;;;6.69;100.00
10014;BME280;45684;48.358;10.746;2023-02-16T10:18:47;97323.50;;;6.79;100.00
10014;BME280;45684;48.358;10.746;2023-02-16T10:21:22;97321.41;;;6.86;100.00
10014;BME280;45684;48.358;10.746;2023-02-16T10:23:54;97325.75;;;7.02;100.00
10014;BME280;45684;48.358;10.746;2023-02-16T10:26:28;97319.34;;;7.13;100.00
10014;BME280;45684;48.358;10.746;2023-02-16T10:29:03;97317.75;;;7.28;100.00
10014;BME280;45684;48.358;10.746;2023-02-16T10:31:37;97319.91;;;7.41;100.00
10014;BME280;45684;48.358;10.746;2023-02-16T10:34:16;97308.09;;;7.57;100.00
10014;BME280;45684;48.358;10.746;2023-02-16T10:37:03;97310.25;;;7.71;100.00
10014;BME280;45684;48.358;10.746;2023-02-16T10:39:42;97316.16;;;7.88;100.00
10014;BME280;45684;48.358;10.746;2023-02-16T10:42:17;97306.19;;;7.99;100.00
10014;BME280;45684;48.358;10.746;2023-02-16T10:44:56;97309.69;;;8.14;100.00
10014;BME280;45684;48.358;10.746;2023-02-16T10:47:32;97304.00;;;8.31;100.00
10014;BME280;45684;48.358;10.746;2023-02-16T10:50:02;97312.03;;;8.57;100.00
10014;BME280;45684;48.358;10.746;2023-02-16T10:52:34;97306.31;;;8.74;100.00
10014;BME280;45684;48.358;10.746;2023-02-16T10:55:04;97307.34;;;8.88;100.00
10014;BME280;45684;48.358;10.746;2023-02-16T10:57:32;97296.19;;;9.05;100.00
10014;BME280;45684;48.358;10.746;2023-02-16T11:00:04;97288.75;;;9.31;100.00
10014;BME280;45684;48.358;10.746;2023-02-16T11:02:36;97286.50;;;9.43;98.76
10014;BME280;45684;48.358;10.746;2023-02-16T11:05:29;97292.63;;;9.54;93.25
10014;BME280;45684;48.358;10.746;2023-02-16T11:07:58;97288.81;;;9.60;90.51
10014;BME280;45684;48.358;10.746;2023-02-16T11:10:40;97279.50;;;9.76;88.50
10014;BME280;45684;48.358;10.746;2023-02-16T11:13:24;97280.25;;;9.82;86.91
10014;BME280;45684;48.358;10.746;2023-02-16T11:15:56;97281.41;;;10.05;84.92
10014;BME280;45684;48.358;10.746;2023-02-16T11:18:34;97275.34;;;10.18;81.43
10014;BME280;45684;48.358;10.746;2023-02-16T11:21:04;97268.69;;;10.34;79.07
10014;BME280;45684;48.358;10.746;2023-02-16T11:23:34;97268.31;;;10.46;78.23
10014;BME280;45684;48.358;10.746;2023-02-16T11:26:04;97268.69;;;10.58;75.31
10014;BME280;45684;48.358;10.746;2023-02-16T11:28:35;97255.50;;;10.76;71.71
10014;BME280;45684;48.358;10.746;2023-02-16T11:31:14;97253.69;;;10.90;70.33
10014;BME280;45684;48.358;10.746;2023-02-16T11:33:55;97259.09;;;10.90;67.64
10014;BME280;45684;48.358;10.746;2023-02-16T11:36:30;97245.56;;;10.90;66.08
10014;BME280;45684;48.358;10.746;2023-02-16T11:39:01;97242.53;;;10.96;64.72
10014;BME280;45684;48.358;10.746;2023-02-16T11:41:30;97243.31;;;11.16;63.00
10014;BME280;45684;48.358;10.746;2023-02-16T11:44:00;97233.38;;;11.11;63.65
10014;BME280;45684;48.358;10.746;2023-02-16T11:46:38;97236.50;;;11.37;62.09
10014;BME280;45684;48.358;10.746;2023-02-16T11:49:29;97235.78;;;11.64;60.14
10014;BME280;45684;48.358;10.746;2023-02-16T11:51:58;97229.38;;;11.74;59.57
10014;BME280;45684;48.358;10.746;2023-02-16T11:54:26;97224.59;;;11.71;57.92
10014;BME280;45684;48.358;10.746;2023-02-16T11:57:03;97217.97;;;11.77;57.56
10014;BME280;45684;48.358;10.746;2023-02-16T11:59:34;97221.78;;;11.76;56.93
10014;BME280;45684;48.358;10.746;2023-02-16T12:02:29;97218.63;;;11.88;56.40
10014;BME280;45684;48.358;10.746;2023-02-16T12:05:17;97217.53;;;12.03;54.33
10014;BME280;45684;48.358;10.746;2023-02-16T12:07:59;97208.03;;;12.19;54.13
10014;BME280;45684;48.358;10.746;2023-02-16T12:10:34;97206.41;;;12.32;54.37
10014;BME280;45684;48.358;10.746;2023-02-16T12:13:12;97208.50;;;12.48;52.21
10014;BME280;45684;48.358;10.746;2023-02-16T12:15:48;97195.84;;;12.44;53.61
10014;BME280;45684;48.358;10.746;2023-02-16T12:18:29;97195.34;;;12.69;52.57
10014;BME280;45684;48.358;10.746;2023-02-16T12:21:09;97197.97;;;12.61;51.38
10014;BME280;45684;48.358;10.746;2023-02-16T12:23:41;97191.72;;;12.74;49.95
10014;BME280;45684;48.358;10.746;2023-02-16T12:26:28;97187.41;;;12.95;49.40
10014;BME280;45684;48.358;10.746;2023-02-16T12:29:07;97188.38;;;13.13;49.15
10014;BME280;45684;48.358;10.746;2023-02-16T12:31:51;97177.69;;;12.94;48.87
10014;BME280;45684;48.358;10.746;2023-02-16T12:34:36;97170.28;;;12.72;49.24
10014;BME280;45684;48.358;10.746;2023-02-16T12:37:12;97169.44;;;12.86;48.49
10014;BME280;45684;48.358;10.746;2023-02-16T12:39:53;97167.53;;;12.86;48.86
10014;BME280;45684;48.358;10.746;2023-02-16T12:42:37;97170.75;;;12.88;47.44
10014;BME280;45684;48.358;10.746;2023-02-16T12:45:13;97162.53;;;12.80;48.42
10014;BME280;45684;48.358;10.746;2023-02-16T12:47:46;97166.53;;;12.82;47.70
10014;BME280;45684;48.358;10.746;2023-02-16T12:50:21;97161.22;;;12.77;47.57
10014;BME280;45684;48.358;10.746;2023-02-16T12:52:53;97152.78;;;12.79;45.77
10014;BME280;45684;48.358;10.746;2023-02-16T12:55:26;97156.81;;;12.67;46.49
10014;BME280;45684;48.358;10.746;2023-02-16T12:58:00;97152.03;;;12.87;46.40
10014;BME280;45684;48.358;10.746;2023-02-16T13:00:40;97150.66;;;12.89;45.77
10014;BME280;45684;48.358;10.746;2023-02-16T13:03:22;97146.53;;;12.92;45.16
10014;BME280;45684;48.358;10.746;2023-02-16T13:06:05;97147.81;;;12.94;46.22
10014;BME280;45684;48.358;10.746;2023-02-16T13:08:38;97141.56;;;12.94;45.71
10014;BME280;45684;48.358;10.746;2023-02-16T13:11:15;97134.91;;;13.00;46.07